Time;durP1;ratioP1;P1;durP2;ratioP2;P2;SDS_P1;SDS_P2;PMS_P1;PMS_P2;Temp;Humidity;BMP_temperature;BMP_pressure;BME280_temperature;BME280_humidity;BME280_pressure;Samples;Min_cycle;Max_cycle;Signal;HPM_P1;HPM_P2
2021/06/10 00:00:29;;;;;;;12.97;4.30;;;11.80;99.90;;;;;;5176657;27;20202;-69
2021/06/10 00:03:16;;;;;;;7.70;3.57;;;11.70;99.90;;;;;;5174910;27;20217;-69
2021/06/10 00:06:04;;;;;;;11.47;3.80;;;11.70;99.90;;;;;;5175004;27;20286;-69
2021/06/10 00:08:51;;;;;;;9.57;3.60;;;11.60;99.90;;;;;;5156979;27;20231;-69
2021/06/10 00:11:38;;;;;;;5.97;3.37;;;11.60;99.90;;;;;;5176025;27;20191;-69
2021/06/10 00:14:26;;;;;;;7.60;3.67;;;11.60;99.90;;;;;;5175071;27;20646;-69
2021/06/10 00:17:13;;;;;;;8.70;3.97;;;11.50;99.90;;;;;;5175844;27;20214;-69
2021/06/10 00:20:00;;;;;;;6.90;3.93;;;11.60;99.90;;;;;;5166446;27;20225;-69
2021/06/10 00:22:47;;;;;;;6.83;3.60;;;11.50;99.90;;;;;;5175723;27;20225;-68
2021/06/10 00:25:34;;;;;;;9.07;3.57;;;11.50;99.90;;;;;;5174600;27;20585;-69
2021/06/10 00:28:21;;;;;;;6.17;3.77;;;11.50;99.90;;;;;;5174811;27;20602;-69
2021/06/10 00:31:10;;;;;;;6.10;3.80;;;11.50;99.90;;;;;;5166999;27;20648;-69
2021/06/10 00:33:57;;;;;;;6.93;3.57;;;11.50;99.90;;;;;;5174725;27;20224;-69
2021/06/10 00:36:44;;;;;;;11.87;3.80;;;11.50;99.90;;;;;;5175261;27;20218;-69
2021/06/10 00:39:30;;;;;;;12.97;3.83;;;11.50;99.90;;;;;;5174693;27;20711;-69
2021/06/10 00:42:17;;;;;;;7.47;3.60;;;11.40;99.90;;;;;;5175679;27;20668;-69
2021/06/10 00:45:06;;;;;;;13.83;3.67;;;11.50;99.90;;;;;;5175574;27;20202;-68
2021/06/10 00:47:54;;;;;;;10.10;4.27;;;11.40;99.90;;;;;;5175185;27;20248;-69
2021/06/10 00:50:43;;;;;;;8.87;3.67;;;11.50;99.90;;;;;;5175419;27;20286;-69
2021/06/10 00:53:30;;;;;;;4.67;3.60;;;11.40;99.90;;;;;;5174011;27;20227;-69
2021/06/10 00:56:17;;;;;;;6.20;3.23;;;11.50;99.90;;;;;;5173864;27;20249;-69
2021/06/10 00:59:04;;;;;;;6.90;4.20;;;11.50;99.90;;;;;;5175032;27;20559;-69
2021/06/10 01:01:51;;;;;;;6.90;3.60;;;11.40;99.90;;;;;;5156227;27;20197;-69
2021/06/10 01:04:40;;;;;;;5.57;3.50;;;11.40;99.90;;;;;;5175491;27;20229;-69
2021/06/10 01:07:34;;;;;;;9.37;3.40;;;11.40;99.90;;;;;;5174012;27;20189;-69
2021/06/10 01:10:27;;;;;;;6.57;3.47;;;11.40;99.90;;;;;;5174971;27;20294;-69
2021/06/10 01:13:19;;;;;;;6.07;3.80;;;11.30;99.90;;;;;;5169270;27;20201;-69
2021/06/10 01:16:07;;;;;;;8.37;3.90;;;11.30;99.90;;;;;;5175123;27;20227;-69
2021/06/10 01:18:54;;;;;;;5.87;3.43;;;11.30;99.90;;;;;;5175603;27;20269;-69
2021/06/10 01:21:43;;;;;;;10.37;3.80;;;11.30;99.90;;;;;;5172945;27;20204;-68
2021/06/10 01:24:45;;;;;;;8.27;3.70;;;11.30;99.90;;;;;;5174833;27;20192;-68
2021/06/10 01:27:36;;;;;;;10.07;3.97;;;11.30;99.90;;;;;;5167960;27;20229;-69
2021/06/10 01:30:24;;;;;;;7.23;4.27;;;11.30;99.90;;;;;;5173706;27;20193;-69
2021/06/10 01:33:12;;;;;;;11.00;4.70;;;11.40;99.90;;;;;;5175437;27;20243;-69
2021/06/10 01:36:01;;;;;;;9.43;4.90;;;11.40;99.90;;;;;;5175211;27;20193;-69
2021/06/10 01:38:49;;;;;;;11.30;4.47;;;11.40;99.90;;;;;;5175382;27;20237;-68
2021/06/10 01:41:36;;;;;;;9.63;4.43;;;11.40;99.90;;;;;;5177321;27;20194;-69
2021/06/10 01:44:24;;;;;;;9.70;4.80;;;11.40;99.90;;;;;;5178000;27;20216;-69
2021/06/10 01:47:11;;;;;;;6.27;4.13;;;11.40;99.90;;;;;;5176328;27;20259;-68
2021/06/10 01:49:58;;;;;;;9.47;4.43;;;11.40;99.90;;;;;;5170499;27;20210;-69
2021/06/10 01:52:46;;;;;;;14.97;4.87;;;11.40;99.90;;;;;;5178094;27;20717;-69
2021/06/10 01:55:32;;;;;;;8.83;4.50;;;11.40;99.90;;;;;;5178461;27;20229;-69
2021/06/10 01:58:19;;;;;;;9.40;4.47;;;11.40;99.60;;;;;;5173177;27;20650;-68
2021/06/10 02:01:08;;;;;;;9.27;4.97;;;11.40;99.20;;;;;;5178622;27;20627;-68
2021/06/10 02:03:55;;;;;;;11.63;4.40;;;11.40;99.60;;;;;;5176998;27;20205;-68
2021/06/10 02:06:42;;;;;;;9.00;4.57;;;11.40;97.90;;;;;;5176849;27;20200;-68
2021/06/10 02:09:29;;;;;;;7.77;4.40;;;11.40;96.50;;;;;;5178303;27;20193;-68
2021/06/10 02:12:16;;;;;;;11.27;4.20;;;11.40;96.00;;;;;;5178004;27;20723;-68
2021/06/10 02:15:04;;;;;;;7.37;4.67;;;11.30;96.50;;;;;;5177151;27;20189;-68
2021/06/10 02:17:53;;;;;;;8.40;4.57;;;11.30;95.30;;;;;;5177600;27;20624;-69
2021/06/10 02:20:40;;;;;;;10.63;4.43;;;11.30;95.20;;;;;;5178100;27;20190;-68
2021/06/10 02:23:27;;;;;;;7.47;4.63;;;11.30;94.80;;;;;;5176887;27;20297;-68
2021/06/10 02:26:18;;;;;;;9.03;4.17;;;11.30;96.40;;;;;;5171276;27;20196;-67
2021/06/10 02:29:05;;;;;;;7.77;4.67;;;11.20;95.70;;;;;;5178047;27;20259;-69
2021/06/10 02:31:52;;;;;;;8.03;4.57;;;11.20;96.00;;;;;;5177128;27;20201;-68
2021/06/10 02:34:40;;;;;;;10.57;4.60;;;11.20;96.90;;;;;;5177688;27;20643;-68
2021/06/10 02:37:27;;;;;;;13.67;4.50;;;11.20;96.50;;;;;;5171176;27;20686;-68
2021/06/10 02:40:15;;;;;;;13.03;5.33;;;11.20;96.80;;;;;;5176501;27;20588;-68
2021/06/10 02:43:03;;;;;;;8.53;4.80;;;11.20;98.30;;;;;;5177732;27;20202;-68
2021/06/10 02:45:50;;;;;;;14.47;5.10;;;11.30;98.20;;;;;;5169895;27;20641;-68
2021/06/10 02:48:37;;;;;;;8.33;4.90;;;11.30;96.50;;;;;;5175978;27;20598;-69
2021/06/10 02:51:28;;;;;;;11.30;4.93;;;11.30;96.10;;;;;;5177342;27;20701;-68
2021/06/10 02:54:18;;;;;;;11.97;4.53;;;11.30;98.00;;;;;;5176428;27;20213;-68
2021/06/10 02:57:05;;;;;;;9.07;4.33;;;11.30;97.50;;;;;;5177558;27;20197;-68
2021/06/10 02:59:52;;;;;;;12.70;4.70;;;11.30;96.80;;;;;;5177315;27;20196;-68
2021/06/10 03:02:39;;;;;;;9.73;4.90;;;11.30;97.40;;;;;;5177318;27;20562;-68
2021/06/10 03:05:27;;;;;;;12.17;4.83;;;11.30;97.10;;;;;;5171542;27;20275;-68
2021/06/10 03:08:17;;;;;;;8.93;4.83;;;11.40;98.10;;;;;;5176146;27;20188;-67
2021/06/10 03:11:05;;;;;;;13.10;5.17;;;11.40;96.90;;;;;;5178151;27;20201;-68
2021/06/10 03:13:52;;;;;;;16.13;5.10;;;11.40;97.00;;;;;;5177109;27;20232;-68
2021/06/10 03:16:40;;;;;;;11.87;4.90;;;11.40;98.00;;;;;;5177937;27;20242;-68
2021/06/10 03:19:27;;;;;;;11.40;4.90;;;11.50;97.60;;;;;;5176420;27;20237;-68
2021/06/10 03:22:14;;;;;;;12.13;4.80;;;11.60;97.60;;;;;;5176908;27;20716;-68
2021/06/10 03:25:02;;;;;;;11.67;5.27;;;11.70;96.20;;;;;;5170262;27;20192;-68
2021/06/10 03:27:50;;;;;;;12.47;5.33;;;11.80;96.40;;;;;;5176562;27;20237;-68
2021/06/10 03:30:37;;;;;;;16.23;5.23;;;11.90;94.60;;;;;;5177397;27;20197;-68
2021/06/10 03:33:24;;;;;;;13.07;5.57;;;12.00;92.40;;;;;;5176807;27;20192;-68
2021/06/10 03:36:11;;;;;;;13.03;5.37;;;12.10;90.80;;;;;;5175478;27;20201;-68
2021/06/10 03:38:58;;;;;;;16.43;5.50;;;12.20;89.60;;;;;;5176632;27;20206;-68
2021/06/10 03:41:48;;;;;;;20.13;6.20;;;12.30;87.30;;;;;;5176235;27;20198;-69
2021/06/10 03:44:35;;;;;;;14.80;5.37;;;12.40;82.40;;;;;;5176719;27;20192;-67
2021/06/10 03:47:22;;;;;;;9.00;5.00;;;12.50;70.30;;;;;;5176539;27;20247;-68
2021/06/10 03:50:10;;;;;;;12.97;5.40;;;12.60;69.40;;;;;;5175355;27;20204;-68
2021/06/10 03:52:57;;;;;;;14.80;6.03;;;12.70;65.90;;;;;;5169383;27;20190;-68
2021/06/10 03:55:44;;;;;;;10.23;4.80;;;12.70;64.20;;;;;;5175496;27;20317;-68
2021/06/10 03:58:32;;;;;;;12.43;4.83;;;12.80;63.40;;;;;;5171634;27;20254;-68
2021/06/10 04:01:19;;;;;;;11.97;4.80;;;12.90;58.60;;;;;;5175066;27;20229;-68
2021/06/10 04:04:06;;;;;;;8.60;4.37;;;12.90;56.50;;;;;;5175885;27;20209;-68
2021/06/10 04:06:53;;;;;;;10.53;4.90;;;13.00;58.00;;;;;;5175116;27;20197;-68
2021/06/10 04:09:40;;;;;;;15.00;4.87;;;13.00;57.40;;;;;;5176152;27;20198;-68
2021/06/10 04:12:27;;;;;;;10.60;4.53;;;13.10;55.20;;;;;;5167469;27;20193;-67
2021/06/10 04:15:16;;;;;;;12.50;4.83;;;13.20;54.20;;;;;;5174899;27;20247;-68
2021/06/10 04:18:03;;;;;;;14.50;4.80;;;13.20;53.30;;;;;;5175414;27;20201;-68
2021/06/10 04:20:51;;;;;;;9.63;4.53;;;13.40;49.90;;;;;;5174916;27;20633;-68
2021/06/10 04:23:38;;;;;;;8.20;4.17;;;13.50;46.80;;;;;;5175331;27;20263;-68
2021/06/10 04:26:25;;;;;;;10.23;4.60;;;13.60;47.80;;;;;;5174652;27;21013;-68
2021/06/10 04:29:13;;;;;;;8.57;4.50;;;13.80;46.60;;;;;;5175567;27;20197;-68
2021/06/10 04:32:01;;;;;;;12.57;4.33;;;13.90;42.80;;;;;;5175496;27;20201;-69
2021/06/10 04:34:48;;;;;;;10.60;4.10;;;14.00;42.70;;;;;;5169981;27;20584;-68
2021/06/10 04:37:35;;;;;;;8.53;4.50;;;14.10;40.00;;;;;;5175181;27;20201;-68
2021/06/10 04:40:22;;;;;;;10.80;4.47;;;14.30;38.20;;;;;;5143211;27;20197;-68
2021/06/10 04:43:09;;;;;;;10.30;5.07;;;14.40;39.00;;;;;;5173629;27;20254;-68
2021/06/10 04:45:56;;;;;;;11.20;4.63;;;14.50;40.50;;;;;;5175830;27;20247;-68
2021/06/10 04:48:45;;;;;;;9.60;4.43;;;14.70;40.10;;;;;;5174902;27;20200;-68
2021/06/10 04:51:32;;;;;;;7.83;4.43;;;14.70;40.50;;;;;;5175198;27;20194;-68
2021/06/10 04:54:19;;;;;;;6.80;4.30;;;14.90;38.70;;;;;;5174472;27;20215;-68
2021/06/10 04:57:07;;;;;;;9.63;4.40;;;15.00;33.00;;;;;;5175385;27;20335;-68
2021/06/10 04:59:54;;;;;;;9.73;4.37;;;15.10;27.70;;;;;;5175345;27;20193;-68
2021/06/10 05:02:41;;;;;;;10.20;4.37;;;15.20;24.00;;;;;;5174430;27;20220;-68
2021/06/10 05:05:29;;;;;;;9.40;4.20;;;15.30;9.90;;;;;;5175328;27;20275;-68
2021/06/10 05:08:16;;;;;;;10.27;4.30;;;15.50;1.70;;;;;;5173773;27;20290;-68
2021/06/10 05:11:03;;;;;;;7.50;4.43;;;15.50;1.00;;;;;;5175020;27;20196;-69
2021/06/10 05:13:50;;;;;;;10.93;4.37;;;15.70;1.00;;;;;;5174970;27;20530;-68
2021/06/10 05:16:37;;;;;;;6.70;3.70;;;15.80;1.00;;;;;;5166465;27;20248;-68
2021/06/10 05:19:24;;;;;;;11.23;4.60;;;15.90;1.00;;;;;;5159481;27;20194;-69
2021/06/10 05:22:12;;;;;;;9.60;3.63;;;16.00;1.00;;;;;;5154579;27;20204;-68
2021/06/10 05:24:59;;;;;;;5.90;3.70;;;16.10;1.00;;;;;;5170097;27;20259;-68
2021/06/10 05:27:46;;;;;;;5.63;3.53;;;16.40;1.00;;;;;;5173818;27;20199;-68
2021/06/10 05:30:33;;;;;;;8.67;3.53;;;16.50;1.00;;;;;;5168537;27;20258;-68
2021/06/10 05:33:20;;;;;;;6.27;3.60;;;16.70;1.00;;;;;;5167590;27;20188;-68
2021/06/10 05:36:07;;;;;;;7.67;3.47;;;16.80;1.00;;;;;;5174186;27;20275;-68
2021/06/10 05:38:56;;;;;;;4.90;3.00;;;17.00;1.00;;;;;;5173398;27;20202;-68
2021/06/10 05:41:43;;;;;;;5.87;3.27;;;17.20;1.00;;;;;;5174718;27;20690;-68
2021/06/10 05:44:30;;;;;;;9.90;3.70;;;17.30;1.00;;;;;;5174347;27;20240;-74
2021/06/10 05:47:17;;;;;;;5.67;3.20;;;17.40;1.00;;;;;;5173527;27;20213;-72
2021/06/10 05:50:05;;;;;;;7.53;3.23;;;17.60;99.90;;;;;;5174291;27;20242;-73
2021/06/10 05:52:51;;;;;;;7.43;3.10;;;17.70;99.90;;;;;;5174554;27;20220;-72
2021/06/10 05:55:40;;;;;;;5.87;2.77;;;17.80;99.90;;;;;;5168623;27;20226;-72
2021/06/10 05:58:27;;;;;;;5.60;2.70;;;18.00;99.90;;;;;;5156020;27;20191;-71
2021/06/10 06:01:14;;;;;;;7.00;3.20;;;18.10;99.90;;;;;;5174592;27;20629;-72
2021/06/10 06:04:01;;;;;;;4.93;3.10;;;18.20;99.90;;;;;;5171978;27;20212;-72
2021/06/10 06:06:48;;;;;;;5.37;2.93;;;18.40;99.90;;;;;;5154092;27;20245;-71
2021/06/10 06:09:35;;;;;;;7.43;2.57;;;18.30;99.90;;;;;;5166359;27;20237;-70
2021/06/10 06:12:24;;;;;;;3.87;2.60;;;18.30;1.00;;;;;;5151041;27;20200;-71
2021/06/10 06:15:11;;;;;;;4.50;2.70;;;18.50;1.00;;;;;;5147562;27;20193;-70
2021/06/10 06:17:58;;;;;;;4.27;2.80;;;18.60;1.00;;;;;;5147784;27;20312;-71
2021/06/10 06:20:45;;;;;;;2.37;2.17;;;18.70;1.00;;;;;;5162181;27;20202;-70
2021/06/10 06:23:32;;;;;;;4.33;2.40;;;18.80;1.00;;;;;;5153358;27;20217;-70
2021/06/10 06:26:20;;;;;;;5.60;2.70;;;18.90;1.00;;;;;;5172734;27;20554;-70
2021/06/10 06:29:08;;;;;;;5.80;2.40;;;19.00;83.90;;;;;;5167069;27;20194;-71
2021/06/10 06:31:55;;;;;;;4.97;2.27;;;19.20;1.00;;;;;;5166529;27;20190;-70
2021/06/10 06:34:42;;;;;;;4.43;2.13;;;19.20;1.00;;;;;;5175962;27;20191;-70
2021/06/10 06:37:29;;;;;;;2.60;1.60;;;19.20;1.00;;;;;;5156503;27;20593;-72
2021/06/10 06:40:17;;;;;;;1.93;1.57;;;19.40;1.00;;;;;;5159254;27;20200;-73
2021/06/10 06:43:05;;;;;;;2.57;1.77;;;19.40;99.90;;;;;;5175347;27;20678;-71
2021/06/10 06:45:54;;;;;;;2.47;1.60;;;19.60;99.90;;;;;;5177767;27;20199;-70
2021/06/10 06:48:41;;;;;;;8.63;2.17;;;19.60;1.00;;;;;;5177000;27;20228;-71
2021/06/10 06:51:28;;;;;;;4.87;1.83;;;19.70;1.00;;;;;;5178675;27;20188;-70
2021/06/10 06:54:15;;;;;;;4.40;1.70;;;19.90;1.00;;;;;;5150873;27;20706;-71
2021/06/10 06:57:02;;;;;;;2.83;1.80;;;20.00;99.90;;;;;;5172970;27;20193;-71
2021/06/10 06:59:49;;;;;;;1.97;1.60;;;20.20;99.90;;;;;;5155665;27;20236;-71
2021/06/10 07:02:37;;;;;;;4.73;1.60;;;20.30;8.80;;;;;;5159525;27;20204;-71
2021/06/10 07:05:24;;;;;;;1.80;1.50;;;20.50;11.10;;;;;;5171395;27;20241;-71
2021/06/10 07:08:11;;;;;;;1.80;1.70;;;20.50;1.00;;;;;;5175817;27;20196;-71
2021/06/10 07:10:58;;;;;;;4.03;2.00;;;20.60;1.00;;;;;;5175568;27;20189;-71
2021/06/10 07:13:45;;;;;;;2.17;1.80;;;20.60;99.90;;;;;;5175961;27;20200;-71
2021/06/10 07:16:32;;;;;;;5.13;2.03;;;20.80;99.90;;;;;;5175280;27;20193;-70
2021/06/10 07:19:21;;;;;;;9.43;2.53;;;21.00;1.00;;;;;;5176714;27;20189;-70
2021/06/10 07:22:09;;;;;;;3.30;2.10;;;21.20;1.00;;;;;;5170544;27;20198;-71
2021/06/10 07:24:56;;;;;;;4.10;2.20;;;21.30;1.00;;;;;;5175996;27;20452;-71
2021/06/10 07:27:43;;;;;;;5.00;2.30;;;21.50;1.00;;;;;;5176565;27;20197;-71
2021/06/10 07:30:31;;;;;;;5.17;2.10;;;21.60;99.90;;;;;;5176522;27;20201;-70
2021/06/10 07:33:17;;;;;;;5.83;2.43;;;21.60;99.90;;;;;;5164521;27;20277;-71
2021/06/10 07:36:07;;;;;;;10.03;2.83;;;21.60;99.90;;;;;;5167545;27;20646;-71
2021/06/10 07:38:54;;;;;;;9.03;2.93;;;21.70;99.90;;;;;;5175321;27;20253;-72
2021/06/10 07:41:41;;;;;;;7.83;2.80;;;21.80;99.90;;;;;;5169239;27;20189;-71
2021/06/10 07:44:28;;;;;;;4.73;2.93;;;21.70;99.90;;;;;;5176310;27;20646;-71
2021/06/10 07:47:14;;;;;;;7.47;2.67;;;21.70;99.90;;;;;;5176297;27;20292;-71
2021/06/10 07:50:02;;;;;;;5.57;2.70;;;22.00;99.90;;;;;;5176399;27;20201;-71
2021/06/10 07:52:50;;;;;;;4.30;2.63;;;22.20;99.90;;;;;;5170765;27;20228;-70
2021/06/10 07:55:37;;;;;;;8.30;2.53;;;22.10;99.90;;;;;;5175832;27;20315;-70
2021/06/10 07:58:24;;;;;;;4.63;2.50;;;22.00;98.10;;;;;;5176087;27;20196;-71
2021/06/10 08:01:11;;;;;;;6.17;2.97;;;22.20;99.90;;;;;;5167834;27;20197;-70
2021/06/10 08:03:58;;;;;;;7.97;2.57;;;22.30;99.90;;;;;;5175410;27;20338;-70
2021/06/10 08:06:45;;;;;;;7.30;2.80;;;22.40;59.10;;;;;;5167491;27;21702;-70
2021/06/10 08:09:33;;;;;;;4.80;2.70;;;22.40;5.30;;;;;;5175534;27;20549;-70
2021/06/10 08:12:22;;;;;;;5.73;2.47;;;22.60;44.50;;;;;;5175784;27;20643;-71
2021/06/10 08:15:09;;;;;;;4.47;2.57;;;22.90;64.40;;;;;;5174557;27;20193;-71
2021/06/10 08:17:57;;;;;;;3.63;2.43;;;23.00;1.00;;;;;;5174809;27;20201;-70
2021/06/10 08:20:44;;;;;;;4.33;2.40;;;23.10;1.00;;;;;;5175740;27;20197;-72
2021/06/10 08:23:31;;;;;;;8.80;2.37;;;23.10;1.00;;;;;;5175049;27;20247;-70
2021/06/10 08:26:20;;;;;;;5.37;2.60;;;23.20;1.00;;;;;;5175400;27;20189;-70
2021/06/10 08:29:07;;;;;;;4.80;2.80;;;23.30;1.00;;;;;;5167345;27;20204;-71
2021/06/10 08:31:54;;;;;;;7.83;2.43;;;23.50;1.00;;;;;;5175262;27;20188;-71
2021/06/10 08:34:41;;;;;;;5.27;3.00;;;23.60;1.00;;;;;;5173638;27;20193;-70
2021/06/10 08:37:28;;;;;;;6.23;2.73;;;23.70;1.00;;;;;;5174239;27;20228;-71
2021/06/10 08:40:15;;;;;;;5.63;2.23;;;23.80;1.00;;;;;;5175145;27;20193;-70
2021/06/10 08:43:03;;;;;;;6.37;2.07;;;24.10;1.00;;;;;;5172776;27;20213;-71
2021/06/10 08:45:51;;;;;;;5.33;2.20;;;24.40;1.00;;;;;;5174595;27;20197;-70
2021/06/10 08:48:39;;;;;;;5.13;2.20;;;24.50;1.00;;;;;;5162992;27;20346;-70
2021/06/10 08:51:26;;;;;;;4.87;2.03;;;24.70;1.00;;;;;;5173825;27;20640;-72
2021/06/10 08:54:13;;;;;;;5.37;2.43;;;24.80;1.00;;;;;;5174837;27;20679;-71
2021/06/10 08:57:00;;;;;;;5.07;2.20;;;24.90;1.00;;;;;;5175245;27;20269;-73
2021/06/10 08:59:49;;;;;;;5.30;2.30;;;25.00;99.90;;;;;;5174728;27;20192;-72
2021/06/10 09:02:36;;;;;;;6.73;2.50;;;24.60;99.90;;;;;;5174137;27;20521;-71
2021/06/10 09:05:23;;;;;;;8.33;2.57;;;24.20;99.90;;;;;;5174609;27;20276;-71
2021/06/10 09:08:10;;;;;;;4.70;2.30;;;24.20;99.90;;;;;;5174584;27;20197;-73
2021/06/10 09:11:08;;;;;;;6.23;2.30;;;24.30;99.90;;;;;;5173524;27;20203;-72
2021/06/10 09:13:55;;;;;;;4.37;2.30;;;23.60;99.90;;;;;;5173117;27;20280;-71
2021/06/10 09:16:48;;;;;;;4.13;2.00;;;23.60;99.90;;;;;;5168483;27;20189;-71
2021/06/10 09:19:35;;;;;;;3.50;2.10;;;23.40;99.90;;;;;;5173690;27;20665;-70
2021/06/10 09:22:25;;;;;;;3.63;2.20;;;23.60;99.90;;;;;;5173690;27;20686;-71
2021/06/10 09:25:16;;;;;;;3.87;2.10;;;24.20;99.90;;;;;;5162219;27;20201;-74
2021/06/10 09:28:04;;;;;;;3.30;1.77;;;24.20;99.90;;;;;;5166195;27;20208;-72
2021/06/10 09:30:52;;;;;;;3.57;2.10;;;24.20;99.90;;;;;;5174594;27;20268;-72
2021/06/10 09:33:41;;;;;;;5.63;1.83;;;24.90;99.90;;;;;;5158518;27;20198;-72
2021/06/10 09:36:28;;;;;;;2.93;1.83;;;25.10;99.90;;;;;;5174325;27;20197;-71
2021/06/10 09:39:17;;;;;;;5.68;2.17;;;25.30;99.90;;;;;;5172661;27;20193;-71
2021/06/10 09:42:05;;;;;;;5.20;2.20;;;25.80;99.90;;;;;;5172664;27;20193;-72
2021/06/10 09:44:56;;;;;;;5.22;2.00;;;26.10;99.90;;;;;;5174034;27;20224;-71
2021/06/10 09:47:45;;;;;;;2.63;1.98;;;26.50;99.90;;;;;;5174175;27;20687;-71
2021/06/10 09:50:37;;;;;;;9.05;2.42;;;26.40;99.90;;;;;;5174167;27;20196;-71
2021/06/10 09:53:25;;;;;;;2.78;1.92;;;26.70;99.90;;;;;;5174578;27;20189;-70
2021/06/10 09:56:13;;;;;;;5.93;1.80;;;26.30;99.90;;;;;;5172340;27;20552;-71
2021/06/10 09:59:04;;;;;;;3.28;1.60;;;25.60;99.90;;;;;;5170522;27;20190;-72
2021/06/10 10:02:08;;;;;;;2.70;1.88;;;24.90;99.90;;;;;;5175320;27;20193;-71
2021/06/10 10:05:00;;;;;;;20.38;5.50;;;24.40;99.90;;;;;;5177024;27;20734;-71
2021/06/10 10:07:48;;;;;;;3.03;1.77;;;24.70;99.90;;;;;;5178019;27;20209;-71
2021/06/10 10:10:35;;;;;;;2.10;1.90;;;25.30;99.90;;;;;;5176763;27;20189;-71
2021/06/10 10:13:22;;;;;;;5.50;2.10;;;25.20;99.90;;;;;;5177293;27;20557;-71
2021/06/10 10:16:10;;;;;;;4.72;1.98;;;25.10;99.90;;;;;;5177342;27;20217;-71
2021/06/10 10:18:57;;;;;;;2.53;2.05;;;25.30;99.90;;;;;;5176286;27;20197;-71
2021/06/10 10:21:44;;;;;;;3.88;2.13;;;25.70;99.90;;;;;;5175801;27;20598;-71
2021/06/10 10:24:32;;;;;;;4.97;2.30;;;26.10;99.90;;;;;;5177305;27;20240;-71
2021/06/10 10:27:19;;;;;;;5.95;2.17;;;26.10;99.90;;;;;;5170578;27;20651;-71
2021/06/10 10:30:08;;;;;;;2.38;2.17;;;26.00;99.90;;;;;;5175344;27;20224;-71
2021/06/10 10:32:56;;;;;;;4.85;2.33;;;25.60;99.90;;;;;;5177125;27;20221;-72
2021/06/10 10:35:52;;;;;;;4.68;1.90;;;25.80;99.90;;;;;;5171245;27;20197;-72
2021/06/10 10:38:40;;;;;;;6.00;2.40;;;26.50;99.90;;;;;;5167691;27;20669;-72
2021/06/10 10:41:28;;;;;;;2.10;1.85;;;26.60;99.90;;;;;;5176248;27;20195;-72
2021/06/10 10:44:21;;;;;;;3.50;2.20;;;26.40;99.90;;;;;;5175239;27;20215;-74
2021/06/10 10:47:09;;;;;;;4.57;2.45;;;25.70;99.90;;;;;;5177890;27;20552;-72
2021/06/10 10:49:56;;;;;;;3.80;2.15;;;25.70;99.90;;;;;;5177967;27;20218;-70
2021/06/10 10:52:52;;;;;;;3.72;1.50;;;25.80;99.90;;;;;;5176450;27;20216;-71
2021/06/10 10:55:39;;;;;;;2.83;1.83;;;25.60;99.90;;;;;;5171835;27;20263;-73
2021/06/10 10:58:27;;;;;;;4.28;1.83;;;25.30;99.90;;;;;;5175939;27;20213;-72
2021/06/10 11:01:14;;;;;;;4.32;1.92;;;25.60;99.90;;;;;;5176195;27;20225;-71
2021/06/10 11:04:01;;;;;;;3.60;1.65;;;26.30;99.90;;;;;;5177033;27;20217;-71
2021/06/10 11:06:48;;;;;;;4.18;1.80;;;26.60;99.90;;;;;;5175901;27;20197;-72
2021/06/10 11:09:42;;;;;;;4.13;1.80;;;26.50;97.60;;;;;;5176951;27;20547;-71
2021/06/10 11:12:50;;;;;;;3.33;1.60;;;25.90;84.00;;;;;;5171870;27;20209;-72
2021/06/10 11:15:51;;;;;;;14.48;5.63;;;26.20;97.20;;;;;;5175283;27;20677;-71
2021/06/10 11:18:52;;;;;;;1.80;1.60;;;26.40;82.70;;;;;;5167889;27;20193;-72
2021/06/10 11:21:52;;;;;;;5.72;1.90;;;26.70;93.80;;;;;;5174698;27;20773;-73
2021/06/10 11:24:47;;;;;;;3.53;1.92;;;27.20;92.80;;;;;;5175671;27;20644;-71
2021/06/10 11:27:39;;;;;;;3.85;1.77;;;27.30;67.60;;;;;;5171957;27;20276;-71
2021/06/10 11:30:27;;;;;;;2.92;1.70;;;27.60;68.40;;;;;;5176879;27;20220;-71
2021/06/10 11:33:23;;;;;;;4.18;1.85;;;27.80;49.20;;;;;;5177054;27;20190;-72
2021/06/10 11:36:10;;;;;;;2.63;1.73;;;28.10;36.40;;;;;;5175426;27;20269;-70
2021/06/10 11:38:57;;;;;;;2.72;1.55;;;27.80;10.40;;;;;;5175992;27;20651;-71
2021/06/10 11:41:44;;;;;;;3.25;1.60;;;27.40;1.00;;;;;;5176293;27;20642;-73
2021/06/10 11:44:32;;;;;;;2.08;1.40;;;27.40;1.00;;;;;;5175586;27;20241;-73
2021/06/10 11:47:24;;;;;;;4.55;1.60;;;26.80;1.00;;;;;;5169032;27;20596;-71
2021/06/10 11:50:33;;;;;;;4.70;1.70;;;26.70;1.00;;;;;;5174107;27;20562;-71
2021/06/10 11:53:21;;;;;;;2.53;1.50;;;26.50;2.10;;;;;;5176028;27;20193;-70
2021/06/10 11:56:08;;;;;;;3.47;1.60;;;27.00;1.50;;;;;;5175537;27;20193;-72
2021/06/10 11:58:57;;;;;;;2.20;1.42;;;27.30;1.00;;;;;;5174766;27;20197;-74
2021/06/10 12:01:57;;;;;;;1.63;1.40;;;27.80;1.00;;;;;;5176677;27;20220;-71
2021/06/10 12:04:44;;;;;;;1.67;1.48;;;27.90;1.00;;;;;;5175876;27;20288;-73
2021/06/10 12:07:32;;;;;;;3.38;1.63;;;27.10;1.00;;;;;;5174805;27;20212;-74
2021/06/10 12:10:20;;;;;;;2.67;1.55;;;26.90;1.00;;;;;;5175642;27;20196;-74
2021/06/10 12:13:08;;;;;;;3.63;1.73;;;26.70;1.00;;;;;;5176494;27;20197;-74
2021/06/10 12:15:55;;;;;;;4.70;2.20;;;26.30;1.00;;;;;;5175656;27;20523;-76
2021/06/10 12:18:42;;;;;;;7.28;2.20;;;25.60;1.00;;;;;;5174613;27;20208;-76
2021/06/10 12:21:30;;;;;;;10.00;2.83;;;24.90;1.00;;;;;;5176096;27;20192;-72
2021/06/10 12:24:19;;;;;;;11.40;2.80;;;24.20;8.80;;;;;;5175115;27;20224;-75
2021/06/10 12:27:13;;;;;;;7.47;3.00;;;24.10;27.70;;;;;;5172881;27;20667;-75
2021/06/10 12:30:00;;;;;;;6.93;3.10;;;24.30;36.20;;;;;;5174569;27;20264;-75
2021/06/10 12:32:47;;;;;;;6.47;2.80;;;24.70;45.40;;;;;;5175576;27;20989;-74
2021/06/10 12:35:34;;;;;;;5.30;2.90;;;24.30;39.00;;;;;;5175712;27;20192;-75
2021/06/10 12:38:27;;;;;;;3.80;2.70;;;24.30;58.70;;;;;;5175007;27;20639;-74
2021/06/10 12:41:18;;;;;;;3.50;2.90;;;24.50;63.60;;;;;;5172920;27;20202;-75
2021/06/10 12:44:09;;;;;;;5.63;2.80;;;24.40;96.40;;;;;;5168016;27;20209;-74
2021/06/10 12:46:57;;;;;;;5.03;3.40;;;24.20;99.90;;;;;;5164355;27;20218;-75
2021/06/10 12:49:47;;;;;;;6.63;3.47;;;24.50;99.90;;;;;;5173163;27;20850;-75
2021/06/10 12:52:35;;;;;;;13.37;3.30;;;24.70;99.90;;;;;;5173140;27;20201;-72
2021/06/10 12:55:28;;;;;;;7.70;3.43;;;24.90;99.90;;;;;;5173158;27;20683;-71
2021/06/10 12:58:18;;;;;;;3.70;3.03;;;24.90;92.40;;;;;;5174851;27;20655;-74
2021/06/10 13:01:09;;;;;;;7.60;3.33;;;24.90;99.90;;;;;;5164654;27;20657;-75
2021/06/10 13:03:56;;;;;;;9.77;3.17;;;25.50;99.90;;;;;;5175004;27;20197;-71
2021/06/10 13:06:43;;;;;;;5.20;2.85;;;26.30;99.90;;;;;;5174653;27;20220;-73
2021/06/10 13:09:30;;;;;;;4.03;2.40;;;26.30;78.00;;;;;;5174098;27;20242;-76
2021/06/10 13:12:20;;;;;;;6.38;3.00;;;26.20;73.90;;;;;;5173148;27;20224;-73
2021/06/10 13:15:12;;;;;;;8.27;2.72;;;26.50;47.40;;;;;;5174873;27;20190;-73
2021/06/10 13:18:02;;;;;;;5.82;3.20;;;27.00;66.90;;;;;;5174575;27;20918;-70
2021/06/10 13:20:51;;;;;;;6.28;3.33;;;27.30;62.70;;;;;;5174821;27;20200;-74
2021/06/10 13:23:45;;;;;;;4.60;3.53;;;26.60;66.60;;;;;;5175102;27;20313;-72
2021/06/10 13:26:35;;;;;;;5.32;3.33;;;25.90;81.70;;;;;;5175045;27;20725;-73
2021/06/10 13:29:23;;;;;;;5.00;3.40;;;25.10;82.70;;;;;;5164492;27;20667;-73
2021/06/10 13:32:23;;;;;;;8.40;3.33;;;25.00;91.30;;;;;;5172910;27;20360;-74
2021/06/10 13:35:13;;;;;;;7.28;3.63;;;24.80;98.20;;;;;;5168819;27;20303;-77
2021/06/10 13:38:01;;;;;;;7.90;4.20;;;24.60;99.90;;;;;;5177984;27;20547;-76
2021/06/10 13:40:48;;;;;;;9.20;3.60;;;24.30;99.90;;;;;;5163596;27;20573;-76
2021/06/10 13:43:35;;;;;;;7.33;3.60;;;24.10;99.90;;;;;;5179162;27;20341;-73
2021/06/10 13:46:22;;;;;;;8.90;3.80;;;24.10;99.90;;;;;;5179424;27;20213;-73
2021/06/10 13:49:11;;;;;;;8.40;2.83;;;24.60;99.90;;;;;;5178669;27;20193;-73
2021/06/10 13:51:58;;;;;;;6.10;3.17;;;25.30;99.90;;;;;;5179519;27;20225;-70
2021/06/10 13:54:45;;;;;;;8.02;3.67;;;25.70;95.10;;;;;;5172134;27;20559;-70
2021/06/10 13:57:32;;;;;;;3.17;2.10;;;26.40;83.70;;;;;;5178602;27;20201;-71
2021/06/10 14:00:20;;;;;;;3.65;2.42;;;26.80;54.30;;;;;;5178727;27;20189;-70
2021/06/10 14:03:07;;;;;;;3.47;2.30;;;27.40;38.80;;;;;;5173899;27;20228;-70
2021/06/10 14:05:55;;;;;;;3.63;2.00;;;27.30;14.10;;;;;;5178032;27;20306;-70
2021/06/10 14:08:42;;;;;;;2.92;1.90;;;27.50;14.80;;;;;;5178045;27;20281;-70
2021/06/10 14:11:29;;;;;;;8.43;2.97;;;27.90;12.30;;;;;;5168483;27;20206;-71
2021/06/10 14:14:16;;;;;;;3.85;2.17;;;27.90;1.00;;;;;;5160628;27;20293;-72
2021/06/10 14:17:03;;;;;;;4.25;2.35;;;27.50;1.00;;;;;;5170654;27;20206;-72
2021/06/10 14:19:50;;;;;;;2.47;1.65;;;27.20;1.00;;;;;;5177410;27;20200;-71
2021/06/10 14:22:39;;;;;;;2.33;1.60;;;26.80;1.00;;;;;;5177852;27;20637;-70
2021/06/10 14:25:26;;;;;;;6.72;3.30;;;26.60;1.00;;;;;;5178722;27;20212;-70
2021/06/10 14:28:13;;;;;;;3.15;1.70;;;26.00;1.00;;;;;;5168921;27;20193;-70
2021/06/10 14:32:17;;;;;;;4.00;2.00;;;25.70;1.00;;;;;;5173438;27;20223;-71
2021/06/10 14:34:10;;;;;;;8.70;2.65;;;25.20;1.00;;;;;;5170841;27;20520;-70
2021/06/10 14:36:57;;;;;;;6.05;1.95;;;24.90;1.00;;;;;;5176635;27;20245;-70